createdAt,value
2022-08-25T00:00:42.868Z,15.04
2022-08-25T00:01:43.012Z,15.2
2022-08-25T00:02:43.849Z,15.2
2022-08-25T00:03:43.218Z,15.12
2022-08-25T00:04:43.319Z,15.12
2022-08-25T00:05:43.450Z,15.04
2022-08-25T00:06:43.576Z,15.04
2022-08-25T00:07:43.674Z,15.12
2022-08-25T00:08:43.827Z,15.04
2022-08-25T00:09:43.928Z,15.04
2022-08-25T00:10:44.031Z,15.04
2022-08-25T00:11:44.136Z,15.12
2022-08-25T00:12:44.231Z,15.04
2022-08-25T00:13:44.386Z,15.04
2022-08-25T00:14:44.492Z,15.2
2022-08-25T00:15:44.656Z,15.12
2022-08-25T00:16:44.743Z,15.2
2022-08-25T00:17:44.841Z,15.2
2022-08-25T00:18:44.945Z,15.12
2022-08-25T00:19:45.045Z,15.12
2022-08-25T00:20:47.904Z,15.12
2022-08-25T00:21:45.292Z,15.12
2022-08-25T00:22:45.452Z,15.12
2022-08-25T00:23:45.553Z,15.2
2022-08-25T00:24:45.711Z,15.12
2022-08-25T00:25:45.808Z,15.12
2022-08-25T00:26:45.910Z,15.12
2022-08-25T00:27:46.099Z,15.12
2022-08-25T00:28:46.111Z,15.04
2022-08-25T00:29:46.222Z,15.04
2022-08-25T00:30:46.413Z,15.04
2022-08-25T00:31:46.586Z,15.12
2022-08-25T00:32:52.586Z,15.2
2022-08-25T00:33:46.796Z,15.2
2022-08-25T00:34:46.873Z,15.2
2022-08-25T00:35:47.029Z,15.2
2022-08-25T00:36:47.193Z,15.2
2022-08-25T00:37:47.284Z,15.12
2022-08-25T00:38:47.434Z,15.12
2022-08-25T00:39:47.581Z,15.12
2022-08-25T00:40:47.636Z,15.12
2022-08-25T00:41:47.740Z,15.04
2022-08-25T00:42:47.840Z,15.04
2022-08-25T00:43:47.993Z,15.04
2022-08-25T00:44:48.143Z,15.12
2022-08-25T00:45:48.410Z,15.2
2022-08-25T00:46:48.398Z,15.12
2022-08-25T00:47:48.505Z,15.12
2022-08-25T00:48:48.599Z,15.2
2022-08-25T00:49:48.757Z,15.2
2022-08-25T00:50:48.861Z,15.12
2022-08-25T00:51:49.006Z,15.04
2022-08-25T00:52:49.158Z,14.88
2022-08-25T00:53:49.260Z,14.799999
2022-08-25T00:54:49.362Z,14.719999
2022-08-25T00:55:49.464Z,14.799999
2022-08-25T00:56:49.573Z,14.88
2022-08-25T00:57:49.688Z,14.639999
2022-08-25T00:58:49.819Z,14.48
2022-08-25T00:59:49.922Z,14.32
2022-08-25T01:00:50.036Z,14.32
2022-08-25T01:01:50.202Z,14.4
2022-08-25T01:02:50.351Z,14.48
2022-08-25T01:03:50.427Z,14.32
2022-08-25T01:04:50.531Z,14.08
2022-08-25T01:05:50.634Z,14.4
2022-08-25T01:06:50.789Z,14.639999
2022-08-25T01:07:50.937Z,14.719999
2022-08-25T01:08:51.040Z,14.639999
2022-08-25T01:09:51.194Z,14.719999
2022-08-25T01:10:51.294Z,14.799999
2022-08-25T01:11:51.444Z,14.799999
2022-08-25T01:12:51.546Z,14.88
2022-08-25T01:13:51.647Z,14.799999
2022-08-25T01:14:51.802Z,15.04
2022-08-25T01:15:51.968Z,14.799999
2022-08-25T01:16:53.566Z,14.799999
2022-08-25T01:17:52.163Z,14.88
2022-08-25T01:18:52.308Z,14.88
2022-08-25T01:19:52.468Z,15.04
2022-08-25T01:20:52.567Z,15.04
2022-08-25T01:21:52.668Z,15.2
2022-08-25T01:22:55.011Z,15.52
2022-08-25T01:23:52.870Z,15.52
2022-08-25T01:24:53.020Z,15.44
2022-08-25T01:25:53.170Z,15.679999
2022-08-25T01:26:53.324Z,15.599999
2022-08-25T01:27:53.476Z,15.44
2022-08-25T01:28:53.577Z,15.28
2022-08-25T01:29:53.679Z,15.28
2022-08-25T01:30:53.805Z,15.12
2022-08-25T01:31:53.883Z,15.04
2022-08-25T01:32:53.985Z,14.719999
2022-08-25T01:33:54.136Z,14.719999
2022-08-25T01:34:54.237Z,14.639999
2022-08-25T01:35:54.341Z,14.24
2022-08-25T01:36:54.444Z,14.08
2022-08-25T01:37:54.549Z,14.08
2022-08-25T01:38:54.653Z,14.08
2022-08-25T01:39:54.899Z,14.08
2022-08-25T01:40:54.945Z,14.24
2022-08-25T01:41:55.049Z,14.24
2022-08-25T01:42:55.158Z,14.4
2022-08-25T01:43:55.258Z,13.599999
2022-08-25T01:44:55.407Z,13.599999
2022-08-25T01:45:55.560Z,13.84
2022-08-25T01:46:55.617Z,14
2022-08-25T01:47:55.761Z,14.32
2022-08-25T01:48:55.920Z,14.24
2022-08-25T01:49:56.020Z,14.08
2022-08-25T01:50:56.171Z,13.92
2022-08-25T01:51:56.318Z,13.599999
2022-08-25T01:52:56.425Z,14.32
2022-08-25T01:53:56.523Z,14.24
2022-08-25T01:54:56.679Z,14.32
2022-08-25T01:55:56.778Z,14.32
2022-08-25T01:56:56.879Z,14.24
2022-08-25T01:57:56.982Z,13.84
2022-08-25T01:58:57.131Z,14
2022-08-25T01:59:57.232Z,14.32
2022-08-25T02:00:57.484Z,14.32
2022-08-25T02:01:59.791Z,14.32
2022-08-25T02:02:57.735Z,14.32
2022-08-25T02:03:57.740Z,14.32
2022-08-25T02:04:57.847Z,14.32
2022-08-25T02:05:58.001Z,14.32
2022-08-25T02:06:58.146Z,14.4
2022-08-25T02:07:58.302Z,14.32
2022-08-25T02:08:58.418Z,14.4
2022-08-25T02:09:58.735Z,14.48
2022-08-25T02:10:58.714Z,14.48
2022-08-25T02:11:58.862Z,14.4
2022-08-25T02:12:58.961Z,14.4
2022-08-25T02:13:59.065Z,14.4
2022-08-25T02:14:59.167Z,14.32
2022-08-25T02:15:59.265Z,14.32
2022-08-25T02:16:59.398Z,14.08
2022-08-25T02:17:59.552Z,14.32
2022-08-25T02:18:59.571Z,14.32
2022-08-25T02:19:59.728Z,14.4
2022-08-25T02:20:59.824Z,14.24
2022-08-25T02:21:59.930Z,14.24
2022-08-25T02:23:00.036Z,14.24
2022-08-25T02:24:00.130Z,14.24
2022-08-25T02:25:00.258Z,14.32
2022-08-25T02:26:00.386Z,14.4
2022-08-25T02:27:00.487Z,14.4
2022-08-25T02:28:00.587Z,14.4
2022-08-25T02:29:00.692Z,14.48
2022-08-25T02:30:00.843Z,14.48
2022-08-25T02:31:01.260Z,14.48
2022-08-25T02:32:01.100Z,14.4
2022-08-25T02:33:01.251Z,14.4
2022-08-25T02:34:01.350Z,14.4
2022-08-25T02:35:01.453Z,14.4
2022-08-25T02:36:01.604Z,14.4
2022-08-25T02:37:01.701Z,14.4
2022-08-25T02:38:01.858Z,14.4
2022-08-25T02:39:01.960Z,14.24
2022-08-25T02:40:02.086Z,14.32
2022-08-25T02:41:02.212Z,14.24
2022-08-25T02:42:02.323Z,14.32
2022-08-25T02:43:02.422Z,14.24
2022-08-25T02:44:02.572Z,14.24
2022-08-25T02:45:02.673Z,14.24
2022-08-25T02:46:02.832Z,14
2022-08-25T02:47:02.922Z,14.24
2022-08-25T02:48:03.027Z,14.32
2022-08-25T02:49:03.180Z,14.24
2022-08-25T02:50:03.286Z,14.32
2022-08-25T02:51:03.441Z,14.32
2022-08-25T02:52:03.591Z,14.32
2022-08-25T02:53:03.700Z,14.4
2022-08-25T02:54:03.794Z,14.48
2022-08-25T02:55:03.891Z,14.88
2022-08-25T02:56:03.994Z,14.799999
2022-08-25T02:57:04.099Z,15.12
2022-08-25T02:58:04.439Z,15.2
2022-08-25T02:59:04.400Z,15.12
2022-08-25T03:00:04.558Z,15.28
2022-08-25T03:01:04.722Z,15.28
2022-08-25T03:02:04.817Z,15.52
2022-08-25T03:03:04.921Z,15.52
2022-08-25T03:04:05.016Z,15.599999
2022-08-25T03:05:05.150Z,15.52
2022-08-25T03:06:05.260Z,15.28
2022-08-25T03:07:05.411Z,15.2
2022-08-25T03:08:05.681Z,15.12
2022-08-25T03:09:05.617Z,14.719999
2022-08-25T03:10:05.715Z,14.48
2022-08-25T03:11:05.830Z,14.4
2022-08-25T03:12:05.924Z,15.04
2022-08-25T03:13:06.024Z,15.52
2022-08-25T03:14:06.181Z,15.679999
2022-08-25T03:15:09.213Z,15.679999
2022-08-25T03:16:09.851Z,15.839999
2022-08-25T03:17:08.632Z,15.839999
2022-08-25T03:18:06.761Z,15.92
2022-08-25T03:19:06.786Z,15.839999
2022-08-25T03:20:06.891Z,15.44
2022-08-25T03:21:06.988Z,15.04
2022-08-25T03:22:07.141Z,14.799999
2022-08-25T03:23:07.244Z,14.719999
2022-08-25T03:24:07.346Z,14.719999
2022-08-25T03:25:07.451Z,14.719999
2022-08-25T03:26:07.597Z,14.799999
2022-08-25T03:27:07.699Z,14.719999
2022-08-25T03:28:07.815Z,14.32
2022-08-25T03:29:07.903Z,14.32
2022-08-25T03:30:08.064Z,14.4
2022-08-25T03:31:08.171Z,14.88
2022-08-25T03:32:08.284Z,14.639999
2022-08-25T03:33:08.415Z,14.48
2022-08-25T03:34:08.521Z,14.4
2022-08-25T03:35:08.620Z,14.32
2022-08-25T03:36:08.724Z,14.08
2022-08-25T03:37:08.819Z,13.92
2022-08-25T03:38:08.927Z,13.92
2022-08-25T03:39:09.025Z,13.92
2022-08-25T03:40:09.187Z,13.92
2022-08-25T03:41:09.283Z,13.84
2022-08-25T03:42:09.388Z,14
2022-08-25T03:43:09.536Z,14
2022-08-25T03:44:09.636Z,14
2022-08-25T03:45:09.736Z,14.48
2022-08-25T03:46:09.916Z,14.24
2022-08-25T03:47:10.042Z,14
2022-08-25T03:48:10.155Z,14
2022-08-25T03:49:10.296Z,14
2022-08-25T03:50:10.401Z,14
2022-08-25T03:51:10.502Z,14
2022-08-25T03:52:10.649Z,13.92
2022-08-25T03:53:10.841Z,13.92
2022-08-25T03:54:10.862Z,13.84
2022-08-25T03:55:11.013Z,13.679999
2022-08-25T03:56:11.113Z,13.84
2022-08-25T03:57:11.214Z,13.92
2022-08-25T03:58:11.325Z,13.92
2022-08-25T03:59:11.466Z,14.08
2022-08-25T04:00:11.568Z,14.08
2022-08-25T04:01:11.772Z,14.08
2022-08-25T04:02:11.856Z,14.08
2022-08-25T04:03:11.967Z,14
2022-08-25T04:04:12.070Z,14.08
2022-08-25T04:05:12.170Z,14.08
2022-08-25T04:06:12.279Z,14.08
2022-08-25T04:07:12.429Z,14.24
2022-08-25T04:08:12.581Z,14.08
2022-08-25T04:09:12.735Z,14.4
2022-08-25T04:10:12.831Z,14.639999
2022-08-25T04:11:12.939Z,14.32
2022-08-25T04:12:13.036Z,14.48
2022-08-25T04:13:13.186Z,14.719999
2022-08-25T04:14:15.840Z,15.12
2022-08-25T04:15:13.444Z,15.12
2022-08-25T04:16:13.610Z,15.2
2022-08-25T04:17:13.654Z,15.2
2022-08-25T04:18:13.746Z,15.2
2022-08-25T04:19:13.895Z,15.28
2022-08-25T04:20:14.393Z,15.28
2022-08-25T04:21:14.205Z,15.52
2022-08-25T04:22:14.353Z,15.599999
2022-08-25T04:23:14.465Z,15.599999
2022-08-25T04:24:14.560Z,15.679999
2022-08-25T04:25:14.662Z,15.679999
2022-08-25T04:26:14.768Z,16
2022-08-25T04:27:14.867Z,16
2022-08-25T04:28:15.021Z,16
2022-08-25T04:29:15.118Z,16.08
2022-08-25T04:30:15.276Z,16
2022-08-25T04:31:15.509Z,15.92
2022-08-25T04:32:15.575Z,15.92
2022-08-25T04:33:15.679Z,15.92
2022-08-25T04:34:28.513Z,15.92
2022-08-25T04:35:15.881Z,16
2022-08-25T04:36:16.039Z,16
2022-08-25T04:37:16.135Z,16.24
2022-08-25T04:38:16.238Z,16.4
2022-08-25T04:39:16.345Z,16.4
2022-08-25T04:40:16.499Z,16.4
2022-08-25T04:41:16.547Z,16.4
2022-08-25T04:42:16.694Z,16.4
2022-08-25T04:43:16.844Z,16.24
2022-08-25T04:44:16.951Z,16.24
2022-08-25T04:45:17.098Z,16
2022-08-25T04:46:20.147Z,16
2022-08-25T04:47:17.409Z,15.839999
2022-08-25T04:48:17.503Z,15.92
2022-08-25T04:49:17.654Z,15.839999
2022-08-25T04:50:17.759Z,15.679999
2022-08-25T04:51:17.863Z,15.839999
2022-08-25T04:52:17.968Z,15.839999
2022-08-25T04:53:18.117Z,15.839999
2022-08-25T04:54:18.268Z,15.92
2022-08-25T04:55:18.422Z,16
2022-08-25T04:56:18.571Z,16
2022-08-25T04:57:18.672Z,16.08
2022-08-25T04:58:18.823Z,16.32
2022-08-25T04:59:18.925Z,16.4
2022-08-25T05:00:19.029Z,16.64
2022-08-25T05:01:19.211Z,17.04
2022-08-25T05:02:19.234Z,17.04
2022-08-25T05:03:19.334Z,17.2
2022-08-25T05:04:28.671Z,17.28
2022-08-25T05:05:19.599Z,17.2
2022-08-25T05:06:19.746Z,17.2
2022-08-25T05:07:19.890Z,17.2
2022-08-25T05:08:19.995Z,17.12
2022-08-25T05:09:20.096Z,17.2
2022-08-25T05:10:20.195Z,17.44
2022-08-25T05:11:20.350Z,17.44
2022-08-25T05:12:20.450Z,17.6
2022-08-25T05:13:20.559Z,17.6
2022-08-25T05:14:20.654Z,17.52
2022-08-25T05:15:20.759Z,17.52
2022-08-25T05:16:20.909Z,17.6
2022-08-25T05:17:20.961Z,17.6
2022-08-25T05:18:21.112Z,17.68
2022-08-25T05:19:21.212Z,17.92
2022-08-25T05:20:21.316Z,18.24
2022-08-25T05:21:21.468Z,18.64
2022-08-25T05:22:21.567Z,18.64
2022-08-25T05:23:21.718Z,18.48
2022-08-25T05:24:21.881Z,18.48
2022-08-25T05:25:22.024Z,18.48
2022-08-25T05:26:22.126Z,18.8
2022-08-25T05:27:22.290Z,18.72
2022-08-25T05:28:22.392Z,18.72
2022-08-25T05:29:22.542Z,18.88
2022-08-25T05:30:22.684Z,18.64
2022-08-25T05:31:22.895Z,18.64
2022-08-25T05:32:22.936Z,18.48
2022-08-25T05:33:23.088Z,18.72
2022-08-25T05:34:23.245Z,19.04
2022-08-25T05:35:23.396Z,19.28
2022-08-25T05:36:23.498Z,19.6
2022-08-25T05:37:23.650Z,19.6
2022-08-25T05:38:23.804Z,19.68
2022-08-25T05:39:23.937Z,19.76
2022-08-25T05:40:24.107Z,19.68
2022-08-25T05:41:24.194Z,19.44
2022-08-25T05:42:24.315Z,19.44
2022-08-25T05:43:24.417Z,19.2
2022-08-25T05:44:24.560Z,19.28
2022-08-25T05:45:24.754Z,19.52
2022-08-25T05:46:24.819Z,19.6
2022-08-25T05:47:24.969Z,19.68
2022-08-25T05:48:25.119Z,19.76
2022-08-25T05:49:25.221Z,19.68
2022-08-25T05:50:25.324Z,20
2022-08-25T05:51:25.426Z,20.24
2022-08-25T05:52:25.575Z,20.08
2022-08-25T05:53:25.684Z,20.24
2022-08-25T05:54:25.831Z,20.32
2022-08-25T05:55:25.935Z,20.4
2022-08-25T05:56:26.032Z,20.4
2022-08-25T05:57:26.136Z,20.72
2022-08-25T05:58:26.237Z,20.88
2022-08-25T05:59:26.393Z,20.64
2022-08-25T06:00:26.567Z,20.72
2022-08-25T06:01:26.702Z,20.72
2022-08-25T06:02:26.747Z,20.72
2022-08-25T06:03:26.892Z,20.48
2022-08-25T06:04:27.005Z,20.48
2022-08-25T06:05:27.115Z,20.64
2022-08-25T06:06:27.264Z,20.64
2022-08-25T06:07:27.363Z,20.72
2022-08-25T06:08:27.458Z,20.88
2022-08-25T06:09:27.563Z,21.2
2022-08-25T06:10:27.711Z,21.44
2022-08-25T06:11:27.815Z,21.44
2022-08-25T06:12:27.970Z,21.52
2022-08-25T06:13:28.946Z,21.52
2022-08-25T06:14:28.180Z,21.68
2022-08-25T06:15:28.273Z,21.92
2022-08-25T06:16:28.425Z,21.68
2022-08-25T06:17:28.476Z,22
2022-08-25T06:18:28.588Z,21.92
2022-08-25T06:19:28.679Z,21.84
2022-08-25T06:20:28.909Z,21.84
2022-08-25T06:21:28.931Z,22
2022-08-25T06:22:29.036Z,22.08
2022-08-25T06:23:29.137Z,21.84
2022-08-25T06:24:29.289Z,22.24
2022-08-25T06:25:29.387Z,22.4
2022-08-25T06:26:29.541Z,22.64
2022-08-25T06:27:29.647Z,22.48
2022-08-25T06:28:29.824Z,23.04
2022-08-25T06:29:29.946Z,23.04
2022-08-25T06:30:30.108Z,23.04
2022-08-25T06:31:30.179Z,22.8
2022-08-25T06:32:30.306Z,22.88
2022-08-25T06:33:30.406Z,23.2
2022-08-25T06:34:30.555Z,24
2022-08-25T06:35:30.661Z,23.92
2022-08-25T06:36:30.818Z,23.6
2022-08-25T06:37:30.915Z,24
2022-08-25T06:38:31.065Z,24.32
2022-08-25T06:39:31.164Z,24.24
2022-08-25T06:40:31.343Z,24.4
2022-08-25T06:41:36.843Z,24.4
2022-08-25T06:42:31.520Z,24.32
2022-08-25T06:43:31.696Z,24.64
2022-08-25T06:44:31.784Z,24.88
2022-08-25T06:45:31.928Z,25.44
2022-08-25T06:46:36.666Z,25.44
2022-08-25T06:47:32.183Z,25.6
2022-08-25T06:48:32.287Z,25.68
2022-08-25T06:49:35.608Z,26.24
2022-08-25T06:50:32.540Z,26.48
2022-08-25T06:51:32.646Z,26.08
2022-08-25T06:52:32.789Z,25.92
2022-08-25T06:53:32.896Z,26.72
2022-08-25T06:54:32.995Z,27.04
2022-08-25T06:55:33.149Z,27.84
2022-08-25T06:56:33.251Z,28
2022-08-25T06:57:33.357Z,27.6
2022-08-25T06:58:33.504Z,27.92
2022-08-25T06:59:33.605Z,27.84
2022-08-25T07:00:33.739Z,28
2022-08-25T07:01:33.895Z,27.68
2022-08-25T07:02:35.289Z,28.24
2022-08-25T07:03:34.073Z,27.92
2022-08-25T07:04:34.164Z,28.08
2022-08-25T07:05:43.345Z,28.08
2022-08-25T07:06:34.418Z,27.28
2022-08-25T07:07:43.207Z,27.84
2022-08-25T07:08:34.678Z,28.08
2022-08-25T07:09:38.623Z,28.08
2022-08-25T07:10:34.926Z,27.6
2022-08-25T07:11:35.028Z,27.84
2022-08-25T07:12:35.178Z,28.48
2022-08-25T07:13:35.281Z,27.92
2022-08-25T07:14:35.386Z,28
2022-08-25T07:15:35.533Z,28
2022-08-25T07:16:35.733Z,28.72
2022-08-25T07:17:35.803Z,28.64
2022-08-25T07:18:35.945Z,28.88
2022-08-25T07:19:36.044Z,28.48
2022-08-25T07:20:36.566Z,28
2022-08-25T07:21:36.250Z,28.24
2022-08-25T07:22:36.351Z,28.8
2022-08-25T07:23:36.529Z,29.04
2022-08-25T07:24:36.605Z,29.28
2022-08-25T07:25:36.706Z,29.2
2022-08-25T07:26:38.387Z,29.68
2022-08-25T07:27:37.012Z,29.04
2022-08-25T07:28:37.190Z,29.04
2022-08-25T07:29:37.214Z,29.92
2022-08-25T07:30:37.317Z,29.04
2022-08-25T07:31:37.683Z,29.44
2022-08-25T07:32:37.519Z,29.28
2022-08-25T07:33:37.625Z,29.68
2022-08-25T07:34:38.941Z,29.68
2022-08-25T07:35:38.023Z,28.08
2022-08-25T07:36:37.979Z,28.08
2022-08-25T07:37:48.719Z,29.12
2022-08-25T07:38:38.282Z,29.12
2022-08-25T07:39:38.384Z,29.12
2022-08-25T07:40:38.484Z,29.04
2022-08-25T07:41:38.591Z,29.44
2022-08-25T07:42:38.688Z,29.28
2022-08-25T07:43:38.789Z,29.92
2022-08-25T07:44:38.887Z,31.2
2022-08-25T07:45:40.555Z,30.64
2022-08-25T07:46:39.215Z,31.04
2022-08-25T07:47:39.302Z,30.4
2022-08-25T07:48:39.400Z,29.68
2022-08-25T07:49:39.842Z,29.52
2022-08-25T07:50:39.611Z,29.6
2022-08-25T07:51:40.112Z,30
2022-08-25T07:52:39.904Z,29.6
2022-08-25T07:53:40.054Z,30.24
2022-08-25T07:54:40.158Z,29.04
2022-08-25T07:55:40.329Z,29.44
2022-08-25T07:56:40.489Z,29.92
2022-08-25T07:57:40.626Z,30.64
2022-08-25T07:58:40.724Z,30.08
2022-08-25T07:59:40.822Z,29.92
2022-08-25T08:00:42.212Z,29.92
2022-08-25T08:01:41.105Z,30.4
2022-08-25T08:02:41.448Z,29.68
2022-08-25T08:03:50.199Z,29.92
2022-08-25T08:04:41.529Z,29.28
2022-08-25T08:05:41.633Z,29.52
2022-08-25T08:06:41.737Z,29.68
2022-08-25T08:07:43.663Z,29.52
2022-08-25T08:08:41.990Z,29.12
2022-08-25T08:09:42.099Z,27.28
2022-08-25T08:11:03.099Z,27.52
2022-08-25T08:11:45.561Z,28.48
2022-08-25T08:12:42.457Z,30
2022-08-25T08:13:42.548Z,29.2
2022-08-25T08:14:44.923Z,29.52
2022-08-25T08:15:42.811Z,28.48
2022-08-25T08:16:42.849Z,27.6
2022-08-25T08:17:43.007Z,29.28
2022-08-25T08:18:43.110Z,30.48
2022-08-25T08:19:45.224Z,30.8
2022-08-25T08:20:43.403Z,29.28
2022-08-25T08:21:43.410Z,29.68
2022-08-25T08:22:43.515Z,30.4
2022-08-25T08:23:43.615Z,29.92
2022-08-25T08:24:53.896Z,27.84
2022-08-25T08:25:43.869Z,27.92
2022-08-25T08:26:58.011Z,29.12
2022-08-25T08:27:44.077Z,28.08
2022-08-25T08:28:44.177Z,28.48
2022-08-25T08:29:44.279Z,30.08
2022-08-25T08:30:47.792Z,32.08
2022-08-25T08:31:48.502Z,30.72
2022-08-25T08:33:44.784Z,29.44
2022-08-25T08:34:44.939Z,29.2
2022-08-25T08:35:45.042Z,29.28
2022-08-25T08:36:45.224Z,30.64
2022-08-25T08:37:45.257Z,31.92
2022-08-25T08:38:45.395Z,32.24
2022-08-25T08:39:45.591Z,31.12
2022-08-25T08:40:45.652Z,30.4
2022-08-25T08:42:07.563Z,30.08
2022-08-25T08:42:46.789Z,31.04
2022-08-25T08:43:46.003Z,30.48
2022-08-25T08:44:46.123Z,30.64
2022-08-25T08:45:46.263Z,31.92
2022-08-25T08:46:46.394Z,32
2022-08-25T08:47:46.469Z,30.24
2022-08-25T08:48:46.562Z,28.8
2022-08-25T08:49:46.663Z,28.8
2022-08-25T08:50:46.818Z,28.4
2022-08-25T08:51:46.971Z,29.2
2022-08-25T08:52:48.670Z,30.24
2022-08-25T08:53:47.229Z,28.72
2022-08-25T08:54:47.324Z,28.88
2022-08-25T08:55:52.415Z,29.28
2022-08-25T08:56:48.024Z,29.92
2022-08-25T08:58:49.846Z,28.08
2022-08-25T08:59:48.672Z,27.84
2022-08-25T09:00:51.928Z,27.68
2022-08-25T09:01:52.555Z,27.92
2022-08-25T09:02:50.262Z,28.64
2022-08-25T09:03:55.067Z,30
2022-08-25T09:04:48.647Z,32
2022-08-25T09:05:48.743Z,32.56
2022-08-25T09:06:48.849Z,31.12
2022-08-25T09:07:48.973Z,31.68
2022-08-25T09:08:49.049Z,31.12
2022-08-25T09:09:49.155Z,30.4
2022-08-25T09:10:49.260Z,29.84
2022-08-25T09:11:49.439Z,29.44
2022-08-25T09:12:49.520Z,29.12
2022-08-25T09:13:49.612Z,27.84
2022-08-25T09:14:53.759Z,27.2
2022-08-25T09:15:49.929Z,26.8
2022-08-25T09:16:50.118Z,26.8
2022-08-25T09:17:54.571Z,27.28
2022-08-25T09:18:51.167Z,27.6
2022-08-25T09:19:50.372Z,28.08
2022-08-25T09:20:50.565Z,28.48
2022-08-25T09:21:50.677Z,28.72
2022-08-25T09:22:50.827Z,28.08
2022-08-25T09:23:50.982Z,27.12
2022-08-25T09:24:51.083Z,27.84
2022-08-25T09:25:52.899Z,28.24
2022-08-25T09:26:51.390Z,28.48
2022-08-25T09:27:51.488Z,28.4
2022-08-25T09:28:51.596Z,29.12
2022-08-25T09:29:51.742Z,29.68
2022-08-25T09:30:51.892Z,29.6
2022-08-25T09:31:51.955Z,29.28
2022-08-25T09:32:52.448Z,28
2022-08-25T09:33:52.245Z,27.84
2022-08-25T09:34:52.402Z,28.48
2022-08-25T09:35:53.576Z,27.92
2022-08-25T09:36:52.603Z,27.2
2022-08-25T09:37:52.757Z,27.84
2022-08-25T09:38:52.861Z,28
2022-08-25T09:39:52.992Z,28.48
2022-08-25T09:40:53.117Z,30.08
2022-08-25T09:41:53.212Z,31.12
2022-08-25T09:42:53.847Z,29.52
2022-08-25T09:43:53.515Z,28
2022-08-25T09:44:53.624Z,27.28
2022-08-25T09:45:53.758Z,27.04
2022-08-25T09:46:53.821Z,27.84
2022-08-25T09:47:53.930Z,28.24
2022-08-25T09:48:55.724Z,28.32
2022-08-25T09:49:54.179Z,28
2022-08-25T09:50:54.280Z,27.44
2022-08-25T09:51:54.436Z,27.68
2022-08-25T09:52:54.541Z,27.6
2022-08-25T09:53:54.694Z,28.08
2022-08-25T09:54:54.789Z,27.84
2022-08-25T09:55:57.844Z,27.28
2022-08-25T09:56:55.096Z,27.68
2022-08-25T09:57:55.142Z,29.28
2022-08-25T09:58:55.250Z,30
2022-08-25T09:59:57.344Z,30.88
2022-08-25T10:00:55.502Z,31.12
2022-08-25T10:01:55.674Z,30.72
2022-08-25T10:02:55.758Z,30
2022-08-25T10:03:55.883Z,30.4
2022-08-25T10:04:56.034Z,31.2
2022-08-25T10:05:56.236Z,32.72
2022-08-25T10:06:56.263Z,33.28
2022-08-25T10:07:56.419Z,31.28
2022-08-25T10:08:56.513Z,31.44
2022-08-25T10:09:56.667Z,30.48
2022-08-25T10:10:56.822Z,30.48
2022-08-25T10:11:57.434Z,31.52
2022-08-25T10:12:57.071Z,30.8
2022-08-25T10:13:57.223Z,29.68
2022-08-25T10:14:57.337Z,29.2
2022-08-25T10:15:57.476Z,29.68
2022-08-25T10:16:57.605Z,29.52
2022-08-25T10:17:57.702Z,29.04
2022-08-25T10:18:57.826Z,29.6
2022-08-25T10:19:57.904Z,30.88
2022-08-25T10:20:58.043Z,31.52
2022-08-25T10:21:58.191Z,30
2022-08-25T10:22:58.350Z,29.84
2022-08-25T10:23:58.498Z,29.2
2022-08-25T10:24:58.594Z,28.48
2022-08-25T10:26:01.746Z,27.92
2022-08-25T10:26:58.871Z,27.6
2022-08-25T10:27:58.956Z,28.32
2022-08-25T10:28:59.063Z,29.28
2022-08-25T10:29:59.164Z,29.84
2022-08-25T10:30:59.368Z,30.64
2022-08-25T10:31:59.414Z,32.24
2022-08-25T10:32:59.563Z,32.56
2022-08-25T10:33:59.664Z,32.8
2022-08-25T10:34:59.780Z,31.68
2022-08-25T10:35:59.921Z,30.08
2022-08-25T10:37:00.029Z,30.32
2022-08-25T10:38:00.130Z,29.12
2022-08-25T10:39:01.463Z,29.44
2022-08-25T10:40:00.374Z,30.32
2022-08-25T10:41:00.429Z,30.08
2022-08-25T10:42:00.531Z,29.68
2022-08-25T10:43:00.776Z,29.92
2022-08-25T10:44:00.842Z,31.44
2022-08-25T10:45:00.986Z,31.92
2022-08-25T10:46:01.107Z,32.24
2022-08-25T10:47:01.250Z,31.52
2022-08-25T10:48:01.345Z,30.72
2022-08-25T10:49:01.490Z,29.2
2022-08-25T10:50:01.645Z,28.4
2022-08-25T10:51:01.783Z,29.12
2022-08-25T10:52:01.950Z,29.44
2022-08-25T10:53:02.111Z,29.52
2022-08-25T10:54:02.275Z,29.92
2022-08-25T10:55:02.363Z,30.48
2022-08-25T10:56:02.457Z,30.48
2022-08-25T10:57:02.561Z,31.84
2022-08-25T10:58:02.713Z,31.28
2022-08-25T10:59:02.821Z,31.2
2022-08-25T11:00:02.966Z,29.6
2022-08-25T11:01:03.094Z,30.08
2022-08-25T11:02:03.234Z,29.92
2022-08-25T11:03:03.413Z,29.12
2022-08-25T11:04:03.542Z,29.52
2022-08-25T11:05:03.651Z,29.12
2022-08-25T11:06:03.723Z,29.44
2022-08-25T11:07:03.872Z,30.24
2022-08-25T11:08:03.936Z,31.84
2022-08-25T11:09:04.161Z,32.32
2022-08-25T11:10:04.193Z,30.32
2022-08-25T11:11:04.444Z,29.68
2022-08-25T11:12:04.450Z,29.92
2022-08-25T11:13:04.644Z,30.48
2022-08-25T11:14:06.484Z,30.08
2022-08-25T11:15:04.793Z,29.44
2022-08-25T11:16:16.889Z,29.12
2022-08-25T11:17:05.037Z,29.44
2022-08-25T11:18:05.099Z,29.2
2022-08-25T11:19:05.541Z,28.72
2022-08-25T11:20:05.356Z,29.92
2022-08-25T11:21:05.502Z,30.24
2022-08-25T11:22:05.660Z,31.12
2022-08-25T11:23:05.865Z,30.8
2022-08-25T11:24:05.919Z,31.84
2022-08-25T11:25:06.015Z,31.84
2022-08-25T11:26:06.118Z,31.84
2022-08-25T11:27:06.226Z,30.72
2022-08-25T11:28:06.515Z,30.08
2022-08-25T11:29:07.766Z,30
2022-08-25T11:30:07.052Z,30
2022-08-25T11:31:06.861Z,29.28
2022-08-25T11:32:06.923Z,28.48
2022-08-25T11:33:07.028Z,29.44
2022-08-25T11:34:07.133Z,30.64
2022-08-25T11:35:07.229Z,30.64
2022-08-25T11:36:07.332Z,29.92
2022-08-25T11:37:07.436Z,29.84
2022-08-25T11:38:07.720Z,28.72
2022-08-25T11:39:07.638Z,28.48
2022-08-25T11:40:08.713Z,28.48
2022-08-25T11:41:11.160Z,29.68
2022-08-25T11:42:08.041Z,28.48
2022-08-25T11:43:08.397Z,29.52
2022-08-25T11:44:08.303Z,29.84
2022-08-25T11:45:08.398Z,30.72
2022-08-25T11:46:08.616Z,31.52
2022-08-25T11:47:11.238Z,32.24
2022-08-25T11:48:08.754Z,31.44
2022-08-25T11:49:08.905Z,31.68
2022-08-25T11:50:09.045Z,31.6
2022-08-25T11:51:09.465Z,31.68
2022-08-25T11:52:09.266Z,32.48
2022-08-25T11:53:11.266Z,30.8
2022-08-25T11:54:09.521Z,31.12
2022-08-25T11:55:09.667Z,32.24
2022-08-25T11:56:09.821Z,32.48
2022-08-25T11:57:09.920Z,31.04
2022-08-25T11:58:10.039Z,31.44
2022-08-25T11:59:10.175Z,33.6
2022-08-25T12:00:10.284Z,34.24
2022-08-25T12:01:10.433Z,33.2
2022-08-25T12:02:10.578Z,31.44
2022-08-25T12:03:10.686Z,31.68
2022-08-25T12:04:10.873Z,32.08
2022-08-25T12:05:10.998Z,31.84
2022-08-25T12:06:11.038Z,31.92
2022-08-25T12:07:11.161Z,31.6
2022-08-25T12:08:11.244Z,31.04
2022-08-25T12:09:11.394Z,30
2022-08-25T12:10:11.522Z,30.32
2022-08-25T12:11:11.865Z,32.48
2022-08-25T12:12:11.708Z,33.04
2022-08-25T12:13:11.810Z,32.56
2022-08-25T12:14:11.904Z,31.44
2022-08-25T12:15:12.006Z,30.88
2022-08-25T12:16:12.194Z,31.12
2022-08-25T12:17:12.311Z,31.2
2022-08-25T12:18:12.601Z,30.8
2022-08-25T12:19:12.576Z,33.04
2022-08-25T12:20:12.670Z,34.08
2022-08-25T12:21:12.773Z,34.08
2022-08-25T12:22:12.920Z,32.08
2022-08-25T12:23:13.021Z,31.2
2022-08-25T12:24:13.179Z,31.12
2022-08-25T12:25:13.276Z,30.48
2022-08-25T12:26:13.404Z,31.6
2022-08-25T12:27:13.547Z,31.92
2022-08-25T12:28:13.684Z,31.28
2022-08-25T12:29:13.837Z,31.84
2022-08-25T12:30:16.115Z,31.2
2022-08-25T12:31:14.115Z,30.8
2022-08-25T12:32:14.239Z,30.64
2022-08-25T12:33:14.350Z,31.44
2022-08-25T12:34:14.513Z,31.28
2022-08-25T12:35:14.644Z,33.28
2022-08-25T12:36:14.804Z,33.68
2022-08-25T12:37:14.909Z,33.6
2022-08-25T12:38:15.011Z,35.6
2022-08-25T12:39:15.124Z,33.84
2022-08-25T12:40:15.344Z,34.8
2022-08-25T12:41:15.364Z,34.32
2022-08-25T12:42:15.809Z,33.68
2022-08-25T12:43:15.614Z,34.32
2022-08-25T12:44:15.758Z,34.72
2022-08-25T12:45:15.869Z,34.56
2022-08-25T12:46:16.000Z,34.4
2022-08-25T12:47:16.116Z,33.6
2022-08-25T12:48:16.231Z,32.72
2022-08-25T12:49:16.322Z,30.88
2022-08-25T12:50:16.427Z,31.2
2022-08-25T12:51:16.533Z,31.92
2022-08-25T12:52:16.628Z,34.56
2022-08-25T12:53:16.734Z,34.88
2022-08-25T12:54:19.159Z,34.56
2022-08-25T12:55:16.931Z,34.8
2022-08-25T12:56:17.034Z,33.84
2022-08-25T12:57:17.145Z,33.44
2022-08-25T12:58:17.238Z,33.04
2022-08-25T12:59:18.280Z,31.92